createdAt,value
2019-03-26T00:00:52.933Z,12.17
2019-03-26T00:03:25.234Z,10.20
2019-03-26T00:05:57.529Z,9.87
2019-03-26T00:08:29.842Z,9.00
2019-03-26T00:11:02.138Z,9.30
2019-03-26T00:13:36.980Z,8.27
2019-03-26T00:16:09.388Z,8.23
2019-03-26T00:18:41.615Z,9.27
2019-03-26T00:21:14.996Z,9.23
2019-03-26T00:23:47.799Z,8.97
2019-03-26T00:26:20.593Z,8.50
2019-03-26T00:28:52.885Z,8.23
2019-03-26T00:31:25.190Z,8.83
2019-03-26T00:33:57.548Z,7.83
2019-03-26T00:36:30.601Z,6.43
2019-03-26T00:39:02.953Z,6.03
2019-03-26T00:41:35.299Z,6.43
2019-03-26T00:44:08.205Z,5.70
2019-03-26T00:46:41.431Z,6.27
2019-03-26T00:49:15.623Z,5.70
2019-03-26T00:51:47.842Z,5.93
2019-03-26T00:54:20.233Z,6.27
2019-03-26T00:56:53.655Z,7.13
2019-03-26T00:59:26.109Z,6.13
2019-03-26T01:01:58.294Z,5.93
2019-03-26T01:04:33.285Z,6.53
2019-03-26T01:07:07.172Z,6.37
2019-03-26T01:09:40.138Z,6.63
2019-03-26T01:12:13.752Z,6.50
2019-03-26T01:14:46.506Z,6.93
2019-03-26T01:17:20.824Z,7.13
2019-03-26T01:19:54.055Z,7.23
2019-03-26T01:22:27.646Z,6.80
2019-03-26T01:25:00.321Z,7.37
2019-03-26T01:27:34.563Z,6.90
2019-03-26T01:30:06.928Z,6.80
2019-03-26T01:32:39.203Z,7.40
2019-03-26T01:35:11.670Z,8.10
2019-03-26T01:37:44.881Z,7.33
2019-03-26T01:40:17.202Z,5.63
2019-03-26T01:42:49.815Z,6.17
2019-03-26T01:45:22.115Z,6.23
2019-03-26T01:47:54.540Z,6.63
2019-03-26T01:50:26.771Z,9.23
2019-03-26T01:52:58.976Z,9.03
2019-03-26T01:55:31.422Z,8.33
2019-03-26T01:58:03.662Z,9.83
2019-03-26T02:00:36.871Z,10.27
2019-03-26T02:03:10.144Z,11.03
2019-03-26T02:05:42.487Z,10.37
2019-03-26T02:08:15.361Z,10.90
2019-03-26T02:10:49.487Z,10.47
2019-03-26T02:13:22.191Z,10.77
2019-03-26T02:15:54.535Z,11.37
2019-03-26T02:18:26.716Z,9.73
2019-03-26T02:20:58.900Z,10.43
2019-03-26T02:23:32.253Z,12.07
2019-03-26T02:26:05.055Z,10.43
2019-03-26T02:28:37.248Z,11.77
2019-03-26T02:31:09.496Z,11.53
2019-03-26T02:33:43.321Z,10.30
2019-03-26T02:36:16.069Z,10.13
2019-03-26T02:38:51.390Z,10.97
2019-03-26T02:41:24.031Z,10.93
2019-03-26T02:43:56.468Z,10.20
2019-03-26T02:46:28.870Z,9.20
2019-03-26T02:49:01.812Z,8.67
2019-03-26T02:51:34.196Z,8.53
2019-03-26T02:54:06.716Z,8.13
2019-03-26T02:56:39.018Z,8.47
2019-03-26T02:59:11.246Z,7.93
2019-03-26T03:01:43.642Z,7.40
2019-03-26T03:04:15.803Z,6.50
2019-03-26T03:06:48.214Z,7.30
2019-03-26T03:09:21.611Z,7.47
2019-03-26T03:11:54.000Z,7.80
2019-03-26T03:14:27.889Z,8.00
2019-03-26T03:17:00.572Z,8.63
2019-03-26T03:19:34.674Z,8.50
2019-03-26T03:22:07.003Z,7.63
2019-03-26T03:24:39.310Z,8.17
2019-03-26T03:27:12.877Z,7.90
2019-03-26T03:29:45.130Z,8.07
2019-03-26T03:32:17.309Z,8.97
2019-03-26T03:34:49.943Z,7.60
2019-03-26T03:37:22.172Z,7.50
2019-03-26T03:39:54.551Z,7.67
2019-03-26T03:42:26.669Z,6.90
2019-03-26T03:44:58.981Z,6.33
2019-03-26T03:47:34.873Z,8.00
2019-03-26T03:50:07.482Z,6.53
2019-03-26T03:52:43.340Z,6.70
2019-03-26T03:55:15.545Z,6.80
2019-03-26T03:57:52.582Z,8.53
2019-03-26T04:00:39.101Z,9.27
2019-03-26T04:03:12.068Z,6.53
2019-03-26T04:05:44.789Z,6.53
2019-03-26T04:08:17.141Z,7.80
2019-03-26T04:10:49.434Z,7.50
2019-03-26T04:13:21.703Z,8.47
2019-03-26T04:15:56.616Z,7.17
2019-03-26T04:18:28.981Z,8.67
2019-03-26T04:21:01.259Z,5.97
2019-03-26T04:23:33.689Z,6.73
2019-03-26T04:26:05.852Z,5.63
2019-03-26T04:28:38.127Z,4.10
2019-03-26T04:31:11.422Z,5.97
2019-03-26T04:33:44.994Z,6.73
2019-03-26T04:36:25.316Z,5.07
2019-03-26T04:38:52.201Z,7.30
2019-03-26T04:41:25.243Z,5.53
2019-03-26T04:44:02.706Z,6.00
2019-03-26T04:46:35.832Z,4.77
2019-03-26T04:49:09.781Z,4.87
2019-03-26T04:51:48.277Z,4.83
2019-03-26T04:54:20.646Z,4.77
2019-03-26T04:56:53.271Z,5.53
2019-03-26T04:59:25.577Z,6.27
2019-03-26T05:02:00.477Z,5.83
2019-03-26T05:04:33.061Z,5.70
2019-03-26T05:07:06.226Z,5.53
2019-03-26T05:09:40.234Z,5.37
2019-03-26T05:12:12.473Z,5.43
2019-03-26T05:14:44.800Z,6.27
2019-03-26T05:17:17.866Z,4.47
2019-03-26T05:19:55.337Z,6.60
2019-03-26T05:22:29.026Z,5.87
2019-03-26T05:25:01.875Z,4.57
2019-03-26T05:27:44.804Z,4.13
2019-03-26T05:30:09.585Z,5.90
2019-03-26T05:32:43.323Z,4.50
2019-03-26T05:35:15.764Z,4.30
2019-03-26T05:37:48.387Z,4.67
2019-03-26T05:40:24.453Z,4.57
2019-03-26T05:43:00.237Z,4.63
2019-03-26T05:45:36.266Z,4.60
2019-03-26T05:48:09.718Z,3.83
2019-03-26T05:50:44.370Z,4.33
2019-03-26T05:53:16.633Z,3.90
2019-03-26T05:55:50.247Z,4.70
2019-03-26T05:58:26.909Z,4.73
2019-03-26T06:01:01.805Z,5.03
2019-03-26T06:03:34.267Z,4.67
2019-03-26T06:06:08.506Z,4.70
2019-03-26T06:08:41.625Z,6.43
2019-03-26T06:11:14.621Z,5.20
2019-03-26T06:13:46.856Z,5.87
2019-03-26T06:16:22.756Z,5.30
2019-03-26T06:18:55.172Z,5.33
2019-03-26T06:21:27.581Z,5.80
2019-03-26T06:24:00.833Z,6.20
2019-03-26T06:26:33.281Z,5.67
2019-03-26T06:29:06.306Z,6.90
2019-03-26T06:31:40.615Z,5.37
2019-03-26T06:34:13.564Z,5.93
2019-03-26T06:36:46.113Z,5.17
2019-03-26T06:39:20.011Z,4.90
2019-03-26T06:41:54.791Z,4.93
2019-03-26T06:44:27.633Z,6.43
2019-03-26T06:47:01.916Z,6.00
2019-03-26T06:49:35.529Z,7.60
2019-03-26T06:52:09.860Z,5.97
2019-03-26T06:54:47.143Z,6.60
2019-03-26T06:57:20.202Z,6.50
2019-03-26T06:59:53.777Z,3.53
2019-03-26T07:02:27.473Z,4.83
2019-03-26T07:05:01.228Z,4.07
2019-03-26T07:07:33.748Z,4.70
2019-03-26T07:10:06.829Z,4.73
2019-03-26T07:12:39.188Z,4.83
2019-03-26T07:15:13.077Z,5.93
2019-03-26T07:17:45.498Z,7.80
2019-03-26T07:20:18.246Z,5.00
2019-03-26T07:22:54.338Z,4.77
2019-03-26T07:25:28.351Z,4.97
2019-03-26T07:28:07.698Z,5.37
2019-03-26T07:30:47.018Z,5.43
2019-03-26T07:33:19.249Z,7.97
2019-03-26T07:35:56.693Z,6.20
2019-03-26T07:38:29.165Z,6.60
2019-03-26T07:41:02.626Z,13.37
2019-03-26T07:43:34.949Z,7.83
2019-03-26T07:46:08.630Z,8.37
2019-03-26T07:48:41.901Z,5.77
2019-03-26T07:51:14.136Z,7.40
2019-03-26T07:53:47.687Z,8.77
2019-03-26T07:56:21.272Z,6.57
2019-03-26T07:58:55.419Z,10.63
2019-03-26T08:01:29.111Z,6.97
2019-03-26T08:04:02.793Z,5.97
2019-03-26T08:06:35.185Z,6.30
2019-03-26T08:09:10.977Z,5.97
2019-03-26T08:11:45.458Z,5.63
2019-03-26T08:14:17.817Z,7.43
2019-03-26T08:16:51.412Z,4.33
2019-03-26T08:19:23.769Z,6.30
2019-03-26T08:21:55.912Z,5.60
2019-03-26T08:24:27.996Z,6.33
2019-03-26T08:27:00.807Z,3.90
2019-03-26T08:29:33.193Z,4.03
2019-03-26T08:32:05.919Z,4.20
2019-03-26T08:34:38.492Z,4.63
2019-03-26T08:37:10.882Z,4.50
2019-03-26T08:39:45.823Z,3.97
2019-03-26T08:42:19.738Z,4.37
2019-03-26T08:44:53.218Z,5.20
2019-03-26T08:47:25.557Z,5.33
2019-03-26T08:49:58.224Z,5.80
2019-03-26T08:52:30.550Z,5.97
2019-03-26T08:55:05.329Z,5.87
2019-03-26T08:57:37.598Z,7.50
2019-03-26T09:00:11.901Z,4.97
2019-03-26T09:02:46.076Z,5.00
2019-03-26T09:05:21.023Z,4.97
2019-03-26T09:07:55.629Z,5.77
2019-03-26T09:10:28.773Z,6.10
2019-03-26T09:13:03.155Z,5.53
2019-03-26T09:15:40.289Z,5.90
2019-03-26T09:18:16.253Z,5.67
2019-03-26T09:20:51.850Z,5.57
2019-03-26T09:23:24.186Z,5.00
2019-03-26T09:25:57.696Z,5.17
2019-03-26T09:28:32.266Z,4.97
2019-03-26T09:31:04.556Z,5.10
2019-03-26T09:33:39.084Z,4.80
2019-03-26T09:36:14.274Z,5.40
2019-03-26T09:38:46.445Z,4.33
2019-03-26T09:41:18.798Z,4.97
2019-03-26T09:43:51.028Z,4.97
2019-03-26T09:46:23.907Z,7.00
2019-03-26T09:48:56.307Z,4.80
2019-03-26T09:51:29.811Z,5.77
2019-03-26T09:54:04.136Z,7.47
2019-03-26T09:56:39.889Z,4.67
2019-03-26T09:59:12.521Z,4.63
2019-03-26T10:01:44.963Z,4.43
2019-03-26T10:04:18.257Z,5.10
2019-03-26T10:06:51.863Z,4.43
2019-03-26T10:09:24.149Z,4.63
2019-03-26T10:11:56.419Z,4.63
2019-03-26T10:14:31.616Z,4.33
2019-03-26T10:17:05.247Z,4.60
2019-03-26T10:19:39.220Z,4.47
2019-03-26T10:22:12.067Z,5.73
2019-03-26T10:24:46.683Z,4.70
2019-03-26T10:27:18.868Z,4.77
2019-03-26T10:29:51.121Z,4.50
2019-03-26T10:32:23.517Z,4.80
2019-03-26T10:34:55.834Z,4.80
2019-03-26T10:37:29.119Z,4.50
2019-03-26T10:40:02.574Z,4.70
2019-03-26T10:42:34.932Z,5.77
2019-03-26T10:45:08.201Z,4.50
2019-03-26T10:47:41.764Z,5.07
2019-03-26T10:50:14.166Z,15.07
2019-03-26T10:52:46.457Z,5.73
2019-03-26T10:55:19.295Z,5.77
2019-03-26T11:01:01.634Z,4.60
2019-03-26T11:03:33.959Z,5.00
2019-03-26T11:06:06.353Z,4.57
2019-03-26T11:08:38.574Z,5.53
2019-03-26T11:11:10.831Z,4.43
2019-03-26T11:13:45.981Z,5.53
2019-03-26T11:16:18.307Z,5.03
2019-03-26T11:18:50.742Z,5.37
2019-03-26T11:21:23.218Z,6.37
2019-03-26T11:23:58.073Z,6.67
2019-03-26T11:26:31.963Z,6.63
2019-03-26T11:29:06.183Z,7.13
2019-03-26T11:31:38.577Z,6.20
2019-03-26T11:34:10.993Z,6.23
2019-03-26T11:36:43.320Z,6.90
2019-03-26T11:39:15.618Z,6.67
2019-03-26T11:41:47.944Z,8.33
2019-03-26T11:44:21.104Z,7.27
2019-03-26T11:46:53.448Z,7.67
2019-03-26T11:49:27.116Z,8.17
2019-03-26T11:51:59.425Z,8.90
2019-03-26T11:54:31.852Z,8.73
2019-03-26T11:57:04.159Z,8.73
2019-03-26T11:59:36.561Z,7.90
2019-03-26T12:02:10.676Z,8.33
2019-03-26T12:04:42.836Z,7.93
2019-03-26T12:07:15.087Z,8.03
2019-03-26T12:09:47.215Z,8.77
2019-03-26T12:12:19.554Z,8.87
2019-03-26T12:14:52.008Z,8.57
2019-03-26T12:17:24.277Z,9.10
2019-03-26T12:19:56.556Z,8.97
2019-03-26T12:22:31.342Z,9.47
2019-03-26T12:25:03.348Z,9.87
2019-03-26T12:27:39.523Z,9.37
2019-03-26T12:30:12.271Z,9.23
2019-03-26T12:32:45.363Z,8.97
2019-03-26T12:35:29.341Z,9.77
2019-03-26T12:38:23.532Z,9.47
2019-03-26T12:40:56.615Z,10.50
2019-03-26T12:43:28.944Z,9.27
2019-03-26T12:46:01.983Z,10.27
2019-03-26T12:48:34.563Z,10.77
2019-03-26T12:51:06.933Z,9.53
2019-03-26T12:53:39.014Z,10.60
2019-03-26T12:56:11.172Z,10.33
2019-03-26T12:58:44.249Z,9.90
2019-03-26T13:01:17.732Z,8.63
2019-03-26T13:03:49.903Z,5.67
2019-03-26T13:06:25.151Z,3.97
2019-03-26T13:08:57.394Z,4.30
2019-03-26T13:11:29.716Z,3.87
2019-03-26T13:14:03.243Z,3.13
2019-03-26T13:16:36.882Z,5.53
2019-03-26T13:19:11.066Z,4.30
2019-03-26T13:21:43.809Z,4.43
2019-03-26T13:24:16.587Z,4.73
2019-03-26T13:26:49.270Z,5.43
2019-03-26T13:29:25.825Z,5.47
2019-03-26T13:31:58.370Z,6.47
2019-03-26T13:34:30.806Z,6.03
2019-03-26T13:37:04.455Z,6.70
2019-03-26T13:39:36.898Z,7.27
2019-03-26T13:42:12.159Z,5.87
2019-03-26T13:44:44.467Z,7.87
2019-03-26T13:47:17.078Z,10.17
2019-03-26T13:49:51.540Z,8.83
2019-03-26T13:52:24.334Z,9.97
2019-03-26T13:54:58.360Z,10.33
2019-03-26T13:57:30.815Z,11.43
2019-03-26T14:00:03.075Z,11.00
2019-03-26T14:02:35.984Z,12.37
2019-03-26T14:05:12.752Z,11.80
2019-03-26T14:07:48.134Z,11.90
2019-03-26T14:10:20.621Z,11.73
2019-03-26T14:12:53.143Z,12.87
2019-03-26T14:15:26.153Z,14.17
2019-03-26T14:17:59.666Z,12.97
2019-03-26T14:20:33.189Z,14.93
2019-03-26T14:23:06.450Z,14.60
2019-03-26T14:25:40.115Z,12.87
2019-03-26T14:28:13.650Z,13.97
2019-03-26T14:30:47.742Z,14.03
2019-03-26T14:33:20.196Z,15.77
2019-03-26T14:35:52.344Z,16.07
2019-03-26T14:38:24.723Z,15.63
2019-03-26T14:40:57.191Z,14.00
2019-03-26T14:43:30.290Z,14.10
2019-03-26T14:46:02.954Z,14.33
2019-03-26T14:48:35.381Z,15.40
2019-03-26T14:51:11.879Z,15.80
2019-03-26T14:53:44.711Z,14.67
2019-03-26T14:56:17.337Z,15.33
2019-03-26T14:58:51.348Z,14.73
2019-03-26T15:01:24.906Z,16.07
2019-03-26T15:03:57.266Z,15.17
2019-03-26T15:06:29.681Z,15.63
2019-03-26T15:09:02.556Z,15.47
2019-03-26T15:11:36.051Z,14.77
2019-03-26T15:14:09.158Z,15.07
2019-03-26T15:16:44.508Z,15.70
2019-03-26T15:19:16.886Z,15.83
2019-03-26T15:21:49.352Z,16.80
2019-03-26T15:24:21.780Z,15.77
2019-03-26T15:26:54.286Z,15.47
2019-03-26T15:29:26.659Z,16.87
2019-03-26T15:31:59.435Z,15.27
2019-03-26T15:34:36.353Z,15.87
2019-03-26T15:37:06.024Z,16.83
2019-03-26T15:39:39.121Z,17.17
2019-03-26T15:42:11.969Z,17.70
2019-03-26T15:44:44.935Z,15.20
2019-03-26T15:47:17.879Z,16.17
2019-03-26T15:49:54.591Z,15.73
2019-03-26T15:52:27.929Z,15.97
2019-03-26T15:55:01.671Z,15.87
2019-03-26T15:57:34.589Z,14.90
2019-03-26T16:00:08.590Z,15.20
2019-03-26T16:02:41.186Z,15.23
2019-03-26T16:05:14.059Z,14.57
2019-03-26T16:07:47.108Z,15.67
2019-03-26T16:10:19.496Z,16.93
2019-03-26T16:12:51.959Z,15.60
2019-03-26T16:15:25.137Z,17.37
2019-03-26T16:17:57.282Z,22.80
2019-03-26T16:20:29.774Z,15.17
2019-03-26T16:23:02.098Z,16.17
2019-03-26T16:25:35.461Z,14.93
2019-03-26T16:28:10.009Z,15.93
2019-03-26T16:30:45.155Z,13.83
2019-03-26T16:33:17.429Z,27.07
2019-03-26T16:35:51.047Z,24.37
2019-03-26T16:38:23.422Z,16.60
2019-03-26T16:40:55.727Z,15.93
2019-03-26T16:43:28.347Z,16.23
2019-03-26T16:46:00.716Z,16.57
2019-03-26T16:48:33.118Z,14.47
2019-03-26T16:51:06.834Z,13.70
2019-03-26T16:53:39.214Z,17.17
2019-03-26T16:56:11.740Z,17.30
2019-03-26T16:58:43.929Z,17.73
2019-03-26T17:01:16.338Z,17.83
2019-03-26T17:03:48.658Z,17.83
2019-03-26T17:06:21.089Z,17.53
2019-03-26T17:08:53.610Z,15.93
2019-03-26T17:11:25.896Z,17.37
2019-03-26T17:13:59.137Z,17.00
2019-03-26T17:16:31.964Z,17.17
2019-03-26T17:19:04.306Z,16.30
2019-03-26T17:21:36.547Z,16.80
2019-03-26T17:24:08.935Z,17.70
2019-03-26T17:26:42.587Z,17.03
2019-03-26T17:29:14.877Z,15.73
2019-03-26T17:31:47.105Z,16.40
2019-03-26T17:34:19.504Z,16.30
2019-03-26T17:36:52.065Z,16.60
2019-03-26T17:39:24.540Z,15.97
2019-03-26T17:41:56.765Z,16.70
2019-03-26T17:44:29.733Z,17.07
2019-03-26T17:47:02.088Z,17.20
2019-03-26T17:49:34.955Z,17.33
2019-03-26T17:52:08.248Z,17.47
2019-03-26T17:54:41.700Z,19.40
2019-03-26T17:57:16.777Z,20.30
2019-03-26T17:59:49.150Z,17.17
2019-03-26T18:02:21.401Z,17.60
2019-03-26T18:04:54.067Z,17.40
2019-03-26T18:07:26.455Z,17.60
2019-03-26T18:09:58.796Z,18.57
2019-03-26T18:12:31.436Z,17.77
2019-03-26T18:15:04.054Z,17.37
2019-03-26T18:17:41.331Z,17.57
2019-03-26T18:20:15.162Z,18.53
2019-03-26T18:22:47.751Z,17.70
2019-03-26T18:25:21.254Z,18.40
2019-03-26T18:27:54.486Z,18.60
2019-03-26T18:30:27.967Z,17.50
2019-03-26T18:33:01.153Z,17.80
2019-03-26T18:35:37.570Z,18.53
2019-03-26T18:38:11.280Z,20.63
2019-03-26T18:40:45.185Z,31.20
2019-03-26T18:43:18.755Z,21.90
2019-03-26T18:45:51.617Z,22.67
2019-03-26T18:48:24.427Z,22.83
2019-03-26T18:50:57.208Z,21.50
2019-03-26T18:53:29.411Z,21.13
2019-03-26T18:56:02.455Z,20.53
2019-03-26T18:58:34.979Z,19.97
2019-03-26T19:01:09.128Z,23.03
2019-03-26T19:03:42.165Z,28.13
2019-03-26T19:06:14.506Z,22.03
2019-03-26T19:08:46.759Z,20.77
2019-03-26T19:11:19.080Z,20.50
2019-03-26T19:13:51.700Z,21.30
2019-03-26T19:16:24.869Z,22.13
2019-03-26T19:18:57.965Z,22.80
2019-03-26T19:21:30.464Z,23.07
2019-03-26T19:24:04.942Z,24.07
2019-03-26T19:26:37.900Z,23.47
2019-03-26T19:29:10.311Z,22.67
2019-03-26T19:31:42.881Z,22.60
2019-03-26T19:34:15.543Z,22.43
2019-03-26T19:36:48.003Z,21.30
2019-03-26T19:39:20.190Z,21.00
2019-03-26T19:41:52.503Z,26.00
2019-03-26T19:44:25.033Z,23.17
2019-03-26T19:46:58.629Z,24.80
2019-03-26T19:49:31.333Z,26.17
2019-03-26T19:52:03.713Z,25.43
2019-03-26T19:54:36.108Z,22.77
2019-03-26T19:57:08.451Z,23.67
2019-03-26T19:59:41.320Z,22.43
2019-03-26T20:02:13.853Z,21.83
2019-03-26T20:04:46.055Z,22.17
2019-03-26T20:07:18.301Z,23.33
2019-03-26T20:09:51.829Z,23.60
2019-03-26T20:12:24.987Z,24.40
2019-03-26T20:14:57.712Z,23.53
2019-03-26T20:17:29.915Z,23.83
2019-03-26T20:20:03.416Z,24.20
2019-03-26T20:22:37.006Z,22.40
2019-03-26T20:25:10.976Z,22.93
2019-03-26T20:27:43.367Z,21.77
2019-03-26T20:30:17.275Z,21.80
2019-03-26T20:32:50.245Z,21.90
2019-03-26T20:35:24.287Z,23.13
2019-03-26T20:37:56.477Z,22.40
2019-03-26T20:40:29.361Z,21.20
2019-03-26T20:43:03.103Z,21.00
2019-03-26T20:45:36.313Z,22.03
2019-03-26T20:48:08.714Z,21.67
2019-03-26T20:50:42.075Z,20.53
2019-03-26T20:53:18.416Z,21.47
2019-03-26T20:55:54.482Z,21.03
2019-03-26T20:58:30.307Z,21.20
2019-03-26T21:01:02.859Z,20.30
2019-03-26T21:03:35.134Z,21.77
2019-03-26T21:06:07.433Z,22.37
2019-03-26T21:08:39.768Z,22.03
2019-03-26T21:11:12.786Z,21.30
2019-03-26T21:13:50.711Z,19.50
2019-03-26T21:16:19.482Z,20.33
2019-03-26T21:18:51.901Z,20.20
2019-03-26T21:21:24.155Z,20.73
2019-03-26T21:23:56.303Z,21.87
2019-03-26T21:26:28.570Z,19.20
2019-03-26T21:29:00.859Z,19.07
2019-03-26T21:31:34.327Z,19.00
2019-03-26T21:34:06.494Z,19.77
2019-03-26T21:36:38.653Z,19.97
2019-03-26T21:39:11.555Z,18.37
2019-03-26T21:41:44.189Z,18.53
2019-03-26T21:44:17.625Z,19.13
2019-03-26T21:46:49.739Z,17.17
2019-03-26T21:49:21.855Z,19.57
2019-03-26T21:51:54.006Z,19.77
2019-03-26T21:54:26.268Z,17.40
2019-03-26T21:56:58.457Z,18.77
2019-03-26T21:59:30.648Z,18.73
2019-03-26T22:02:03.453Z,19.47
2019-03-26T22:04:35.802Z,19.00
2019-03-26T22:07:08.044Z,17.87
2019-03-26T22:09:40.965Z,18.50
2019-03-26T22:12:13.225Z,19.60
2019-03-26T22:14:46.501Z,20.00
2019-03-26T22:17:18.874Z,18.83
2019-03-26T22:19:52.260Z,20.97
2019-03-26T22:22:25.010Z,20.53
2019-03-26T22:24:58.700Z,18.03
2019-03-26T22:27:31.049Z,20.03
2019-03-26T22:30:03.380Z,19.17
2019-03-26T22:32:35.729Z,19.00
2019-03-26T22:35:08.799Z,19.47
2019-03-26T22:37:40.933Z,18.43
2019-03-26T22:40:13.624Z,18.97
2019-03-26T22:42:45.986Z,19.23
2019-03-26T22:45:18.250Z,17.73
2019-03-26T22:47:50.511Z,19.77
2019-03-26T22:50:22.913Z,20.27
2019-03-26T22:52:55.869Z,20.23
2019-03-26T22:55:28.043Z,19.40
2019-03-26T22:58:00.941Z,18.60
2019-03-26T23:00:35.583Z,18.97
2019-03-26T23:03:10.017Z,19.20
2019-03-26T23:05:47.807Z,18.07
2019-03-26T23:08:21.230Z,18.07
2019-03-26T23:10:53.477Z,19.03
2019-03-26T23:13:25.846Z,18.80
2019-03-26T23:15:58.458Z,18.30
2019-03-26T23:18:30.735Z,19.03
2019-03-26T23:21:02.949Z,18.37
2019-03-26T23:23:35.197Z,18.57
2019-03-26T23:26:08.844Z,18.83
2019-03-26T23:28:41.205Z,18.37
2019-03-26T23:31:14.109Z,17.20
2019-03-26T23:33:46.296Z,16.37
2019-03-26T23:36:19.188Z,17.57
2019-03-26T23:38:51.451Z,17.43
2019-03-26T23:41:25.362Z,17.77
2019-03-26T23:43:57.819Z,16.47
2019-03-26T23:46:30.133Z,17.13
2019-03-26T23:49:03.081Z,17.00
2019-03-26T23:51:38.955Z,15.43
2019-03-26T23:54:15.482Z,15.27
2019-03-26T23:56:47.599Z,15.53
2019-03-26T23:59:19.744Z,15.17
